Sarakhs, Iran

7:06 AM IRDT on September 19, 2014 (GMT +0430)
SARAKHS | Change Station
CLOSE
Current Station
Airport
Location: SARAKHS,
Elevation: 945 ft
Nearby Weather Stations

Elev 945 ft 36.50 °N, 61.06 °E | Updated 36 minutes ago

Clear
Clear
59 °F
Feels Like 59 °F
N
5
Wind Variable Wind from NW

Today
High -- | Low -- °F
--% Chance of Precip.
Yesterday
High -- | Low -- °F
Precip. -- in
6:10 AM 6:27 PM
Waning Crescent, 22% visible
Pressure 30.18 in
Visibility 3.7 miles
Clouds Clear
Dew Point 41 °F
Humidity 51%
Rainfall 0.00 in
Snow Depth Not available.
UV 0 out of 12
Pollen Not available.
Air Quality Not available.
Flu Activity Not available.
METAR OIMC 190200Z 32004KT 6000 SKC 15/05 Q1022

More Conditions Fewer Conditions

Pressure 30.18 in
Visibility 3.7 miles
Clouds Clear
Dew Point 41 °F
Humidity 51%
Rainfall 0.00 in
Snow Depth Not available.
UV 0 out of 12
Pollen Not available.
Air Quality Not available.
Flu Activity Not available.
METAR OIMC 190200Z 32004KT 6000 SKC 15/05 Q1022

More Conditions Fewer Conditions

10-Day Weather Forecast

Almanac

Astronomy

Sep. 19, 2014 Rise Set
Actual Time 6:10 AM IRDT 6:27 PM IRDT
Civil Twilight 5:44 AM IRDT 6:53 PM IRDT
Nautical Twilight 5:14 AM IRDT 7:23 PM IRDT
Astronomical Twilight 4:43 AM IRDT 7:53 PM IRDT
Moon 1:39 AM IRDT 3:35 PM IRDT
Length of Visible Light 13h 08m
Length of Day
12h 16m
Tomorrow will be 2m 17s shorter.
Waning Crescent, 22% of the Moon is Illuminated
Sep 18
Waning Crescent
Sep 24
New
Oct 1
First Quarter
Oct 8
Full
Oct 15
Last Quarter

Yesterday's Extremes

Country Highs Country Lows

Community

WunderPhotos

Upload Photos

1,754,542 photos uploaded!

Nearby

Snow Depth

Not available.

Earthquake Activity

City Distance Mag. Time & Date
No recent earthquake activity has been reported nearby.
Minimum magnitude displayed is 2.5.

Coastal Water Temperatures

Place Temperature
No Stations Reporting

Nearby Weather Stations